Weather at Ballina Airfield

Public forecast

Using degrees Celsius for public forecast. Weather courtesy of forecast.io.

Closest aviation weather report (METAR) to Ballina Airfield

Report is more than 6 hours old.

Closest report is Ireland West Knock Airport, 16.2 nm (29.9 km) SE. Retrieved 2022/06/28 17:00 UTC (7 hours ago):

EIKN 281700Z 22011KT 180V250 9999 FEW015 SCT022CB 15/10 Q1002 NOSIG

Closest aviation forecast (TAF) to Ballina Airfield

Closest forecast is Ireland West Knock Airport, 16.2 nm (29.9 km) SE. Retrieved 2022/06/28 20:39 UTC (3 hours ago):

TAF TAF EIKN 282029Z 2820/2918 CNL